sensor_id;sensor_type;location;lat;lon;timestamp;pressure;altitude;pressure_sealevel;temperature;humidity
76108;BME280;64834;52.516;10.528;2023-04-03T00:01:19;102572.50;;;-0.73;82.57
76108;BME280;64834;52.516;10.528;2023-04-03T00:03:44;102578.75;;;-0.71;82.42
76108;BME280;64834;52.516;10.528;2023-04-03T00:06:11;102578.69;;;-0.58;81.53
76108;BME280;64834;52.516;10.528;2023-04-03T00:08:37;102587.19;;;-0.72;81.96
76108;BME280;64834;52.516;10.528;2023-04-03T00:11:03;102581.25;;;-0.78;82.32
76108;BME280;64834;52.516;10.528;2023-04-03T00:13:29;102579.00;;;-0.82;82.85
76108;BME280;64834;52.516;10.528;2023-04-03T00:15:54;102586.94;;;-0.80;82.36
76108;BME280;64834;52.516;10.528;2023-04-03T00:18:20;102586.59;;;-0.76;82.40
76108;BME280;64834;52.516;10.528;2023-04-03T00:20:46;102584.00;;;-0.76;82.40
76108;BME280;64834;52.516;10.528;2023-04-03T00:23:11;102592.75;;;-0.69;82.58
76108;BME280;64834;52.516;10.528;2023-04-03T00:25:36;102586.06;;;-0.74;82.68
76108;BME280;64834;52.516;10.528;2023-04-03T00:28:03;102589.72;;;-0.92;82.87
76108;BME280;64834;52.516;10.528;2023-04-03T00:30:29;102581.59;;;-0.95;83.21
76108;BME280;64834;52.516;10.528;2023-04-03T00:32:54;102586.34;;;-0.98;83.31
76108;BME280;64834;52.516;10.528;2023-04-03T00:35:21;102588.13;;;-1.04;83.45
76108;BME280;64834;52.516;10.528;2023-04-03T00:37:47;102583.13;;;-0.90;83.29
76108;BME280;64834;52.516;10.528;2023-04-03T00:40:14;102587.25;;;-0.85;83.31
76108;BME280;64834;52.516;10.528;2023-04-03T00:42:41;102591.88;;;-0.95;83.39
76108;BME280;64834;52.516;10.528;2023-04-03T00:47:39;102599.63;;;-1.08;83.56
76108;BME280;64834;52.516;10.528;2023-04-03T00:50:06;102591.88;;;-0.95;83.26
76108;BME280;64834;52.516;10.528;2023-04-03T00:52:32;102594.25;;;-0.96;83.21
76108;BME280;64834;52.516;10.528;2023-04-03T00:55:00;102595.41;;;-1.07;83.90
76108;BME280;64834;52.516;10.528;2023-04-03T00:57:28;102607.34;;;-1.08;83.95
76108;BME280;64834;52.516;10.528;2023-04-03T00:59:57;102602.53;;;-1.12;84.18
76108;BME280;64834;52.516;10.528;2023-04-03T01:02:24;102603.13;;;-1.20;84.64
76108;BME280;64834;52.516;10.528;2023-04-03T01:04:50;102613.22;;;-1.21;84.46
76108;BME280;64834;52.516;10.528;2023-04-03T01:07:18;102610.47;;;-1.23;84.90
76108;BME280;64834;52.516;10.528;2023-04-03T01:09:47;102617.75;;;-1.13;84.58
76108;BME280;64834;52.516;10.528;2023-04-03T01:12:18;102616.69;;;-1.08;84.25
76108;BME280;64834;52.516;10.528;2023-04-03T01:14:45;102619.69;;;-1.18;84.33
76108;BME280;64834;52.516;10.528;2023-04-03T01:17:39;102616.81;;;-1.26;85.04
76108;BME280;64834;52.516;10.528;2023-04-03T01:22:48;102620.66;;;-1.30;85.00
76108;BME280;64834;52.516;10.528;2023-04-03T01:25:17;102617.63;;;-1.20;85.45
76108;BME280;64834;52.516;10.528;2023-04-03T01:27:43;102621.38;;;-1.31;85.58
76108;BME280;64834;52.516;10.528;2023-04-03T01:30:08;102619.72;;;-1.30;85.77
76108;BME280;64834;52.516;10.528;2023-04-03T01:32:34;102626.59;;;-1.37;86.33
76108;BME280;64834;52.516;10.528;2023-04-03T01:34:59;102628.97;;;-1.38;86.67
76108;BME280;64834;52.516;10.528;2023-04-03T01:37:25;102623.22;;;-1.43;86.36
76108;BME280;64834;52.516;10.528;2023-04-03T01:39:50;102622.59;;;-1.47;86.84
76108;BME280;64834;52.516;10.528;2023-04-03T01:42:15;102617.56;;;-1.53;87.22
76108;BME280;64834;52.516;10.528;2023-04-03T01:44:41;102623.63;;;-1.40;86.92
76108;BME280;64834;52.516;10.528;2023-04-03T01:47:07;102618.38;;;-1.47;86.75
76108;BME280;64834;52.516;10.528;2023-04-03T01:49:32;102616.53;;;-1.35;86.51
76108;BME280;64834;52.516;10.528;2023-04-03T01:51:58;102611.13;;;-1.56;86.82
76108;BME280;64834;52.516;10.528;2023-04-03T01:54:23;102615.91;;;-1.52;87.04
76108;BME280;64834;52.516;10.528;2023-04-03T01:56:48;102624.25;;;-1.48;86.45
76108;BME280;64834;52.516;10.528;2023-04-03T01:59:14;102625.06;;;-1.54;86.94
76108;BME280;64834;52.516;10.528;2023-04-03T02:01:42;102636.44;;;-1.52;86.86
76108;BME280;64834;52.516;10.528;2023-04-03T02:04:08;102632.97;;;-1.53;87.28
76108;BME280;64834;52.516;10.528;2023-04-03T02:06:34;102630.00;;;-1.56;87.12
76108;BME280;64834;52.516;10.528;2023-04-03T02:08:59;102626.72;;;-1.68;87.60
76108;BME280;64834;52.516;10.528;2023-04-03T02:11:25;102625.88;;;-1.61;87.74
76108;BME280;64834;52.516;10.528;2023-04-03T02:13:50;102628.16;;;-1.57;87.21
76108;BME280;64834;52.516;10.528;2023-04-03T02:16:15;102631.75;;;-1.62;87.19
76108;BME280;64834;52.516;10.528;2023-04-03T02:18:41;102636.16;;;-1.61;87.66
76108;BME280;64834;52.516;10.528;2023-04-03T02:21:06;102639.13;;;-1.71;87.84
76108;BME280;64834;52.516;10.528;2023-04-03T02:23:32;102638.72;;;-1.61;87.77
76108;BME280;64834;52.516;10.528;2023-04-03T02:26:10;102639.44;;;-1.62;87.28
76108;BME280;64834;52.516;10.528;2023-04-03T02:28:35;102641.00;;;-1.57;87.42
76108;BME280;64834;52.516;10.528;2023-04-03T02:31:01;102635.25;;;-1.61;87.51
76108;BME280;64834;52.516;10.528;2023-04-03T02:33:27;102642.22;;;-1.60;88.05
76108;BME280;64834;52.516;10.528;2023-04-03T02:35:56;102640.66;;;-1.66;87.70
76108;BME280;64834;52.516;10.528;2023-04-03T02:38:22;102638.72;;;-1.61;87.51
76108;BME280;64834;52.516;10.528;2023-04-03T02:40:48;102639.44;;;-1.62;87.67
76108;BME280;64834;52.516;10.528;2023-04-03T02:43:14;102639.44;;;-1.62;87.56
76108;BME280;64834;52.516;10.528;2023-04-03T02:45:39;102643.84;;;-1.61;87.96
76108;BME280;64834;52.516;10.528;2023-04-03T02:48:05;102652.03;;;-1.64;87.74
76108;BME280;64834;52.516;10.528;2023-04-03T02:50:30;102657.41;;;-1.62;88.08
76108;BME280;64834;52.516;10.528;2023-04-03T02:52:55;102650.44;;;-1.63;88.26
76108;BME280;64834;52.516;10.528;2023-04-03T02:55:20;102653.00;;;-1.63;88.52
76108;BME280;64834;52.516;10.528;2023-04-03T02:57:46;102648.78;;;-1.63;88.28
76108;BME280;64834;52.516;10.528;2023-04-03T03:00:11;102658.31;;;-1.74;88.50
76108;BME280;64834;52.516;10.528;2023-04-03T03:02:37;102659.56;;;-1.65;88.58
76108;BME280;64834;52.516;10.528;2023-04-03T03:05:03;102650.53;;;-1.81;89.07
76108;BME280;64834;52.516;10.528;2023-04-03T03:07:28;102656.88;;;-1.72;89.29
76108;BME280;64834;52.516;10.528;2023-04-03T03:09:54;102647.16;;;-1.62;88.59
76108;BME280;64834;52.516;10.528;2023-04-03T03:12:19;102655.56;;;-1.76;88.74
76108;BME280;64834;52.516;10.528;2023-04-03T03:14:47;102642.41;;;-1.72;88.84
76108;BME280;64834;52.516;10.528;2023-04-03T03:17:12;102648.06;;;-1.74;89.28
76108;BME280;64834;52.516;10.528;2023-04-03T03:19:38;102656.97;;;-1.65;89.03
76108;BME280;64834;52.516;10.528;2023-04-03T03:22:03;102653.91;;;-1.75;88.76
76108;BME280;64834;52.516;10.528;2023-04-03T03:24:28;102660.06;;;-1.68;88.87
76108;BME280;64834;52.516;10.528;2023-04-03T03:26:53;102655.88;;;-1.67;88.81
76108;BME280;64834;52.516;10.528;2023-04-03T03:29:19;102662.66;;;-1.68;88.78
76108;BME280;64834;52.516;10.528;2023-04-03T03:31:44;102654.75;;;-1.69;88.94
76108;BME280;64834;52.516;10.528;2023-04-03T03:34:10;102663.47;;;-1.61;88.84
76108;BME280;64834;52.516;10.528;2023-04-03T03:36:35;102665.03;;;-1.56;88.70
76108;BME280;64834;52.516;10.528;2023-04-03T03:39:01;102668.91;;;-1.66;88.68
76108;BME280;64834;52.516;10.528;2023-04-03T03:41:26;102666.66;;;-1.70;89.10
76108;BME280;64834;52.516;10.528;2023-04-03T03:43:52;102662.44;;;-1.82;89.62
76108;BME280;64834;52.516;10.528;2023-04-03T03:46:17;102664.56;;;-1.85;89.88
76108;BME280;64834;52.516;10.528;2023-04-03T03:48:42;102668.84;;;-1.91;90.11
76108;BME280;64834;52.516;10.528;2023-04-03T03:51:08;102666.28;;;-1.91;90.31
76108;BME280;64834;52.516;10.528;2023-04-03T03:53:33;102660.25;;;-1.79;90.08
76108;BME280;64834;52.516;10.528;2023-04-03T03:55:59;102668.59;;;-1.74;89.63
76108;BME280;64834;52.516;10.528;2023-04-03T03:58:24;102662.81;;;-1.79;89.72
76108;BME280;64834;52.516;10.528;2023-04-03T04:00:50;102665.69;;;-1.83;90.14
76108;BME280;64834;52.516;10.528;2023-04-03T04:03:15;102664.00;;;-1.95;90.00
76108;BME280;64834;52.516;10.528;2023-04-03T04:05:41;102661.69;;;-1.94;90.17
76108;BME280;64834;52.516;10.528;2023-04-03T04:08:06;102657.34;;;-2.00;90.50
76108;BME280;64834;52.516;10.528;2023-04-03T04:10:32;102659.13;;;-1.81;90.23
76108;BME280;64834;52.516;10.528;2023-04-03T04:12:57;102660.53;;;-1.96;89.98
76108;BME280;64834;52.516;10.528;2023-04-03T04:15:22;102659.69;;;-2.02;90.65
76108;BME280;64834;52.516;10.528;2023-04-03T04:17:49;102672.19;;;-2.10;90.24
76108;BME280;64834;52.516;10.528;2023-04-03T04:20:14;102672.00;;;-2.12;90.62
76108;BME280;64834;52.516;10.528;2023-04-03T04:22:40;102672.41;;;-2.09;91.01
76108;BME280;64834;52.516;10.528;2023-04-03T04:25:05;102671.81;;;-2.01;91.00
76108;BME280;64834;52.516;10.528;2023-04-03T04:27:31;102677.44;;;-2.03;90.82
76108;BME280;64834;52.516;10.528;2023-04-03T04:29:56;102678.31;;;-2.15;91.02
76108;BME280;64834;52.516;10.528;2023-04-03T04:32:21;102683.16;;;-2.11;91.16
76108;BME280;64834;52.516;10.528;2023-04-03T04:34:47;102679.72;;;-1.99;90.93
76108;BME280;64834;52.516;10.528;2023-04-03T04:37:12;102688.13;;;-2.00;90.97
76108;BME280;64834;52.516;10.528;2023-04-03T04:39:37;102686.25;;;-2.01;91.37
76108;BME280;64834;52.516;10.528;2023-04-03T04:42:03;102691.19;;;-2.03;91.28
76108;BME280;64834;52.516;10.528;2023-04-03T04:44:28;102692.19;;;-2.08;91.16
76108;BME280;64834;52.516;10.528;2023-04-03T04:46:53;102691.38;;;-2.01;91.19
76108;BME280;64834;52.516;10.528;2023-04-03T04:49:19;102693.78;;;-1.90;90.64
76108;BME280;64834;52.516;10.528;2023-04-03T04:51:44;102695.75;;;-1.95;90.80
76108;BME280;64834;52.516;10.528;2023-04-03T04:54:10;102701.25;;;-2.04;90.93
76108;BME280;64834;52.516;10.528;2023-04-03T04:56:35;102699.31;;;-2.00;91.15
76108;BME280;64834;52.516;10.528;2023-04-03T04:59:01;102705.78;;;-1.96;90.96
76108;BME280;64834;52.516;10.528;2023-04-03T05:01:26;102699.59;;;-2.04;91.29
76108;BME280;64834;52.516;10.528;2023-04-03T05:03:51;102706.09;;;-2.00;91.34
76108;BME280;64834;52.516;10.528;2023-04-03T05:06:16;102713.88;;;-2.06;91.38
76108;BME280;64834;52.516;10.528;2023-04-03T05:08:42;102712.63;;;-2.02;91.16
76108;BME280;64834;52.516;10.528;2023-04-03T05:11:07;102717.22;;;-2.12;91.46
76108;BME280;64834;52.516;10.528;2023-04-03T05:13:32;102712.72;;;-2.08;92.03
76108;BME280;64834;52.516;10.528;2023-04-03T05:15:58;102714.59;;;-2.07;91.90
76108;BME280;64834;52.516;10.528;2023-04-03T05:18:23;102725.25;;;-2.04;91.68
76108;BME280;64834;52.516;10.528;2023-04-03T05:20:49;102720.25;;;-1.97;91.94
76108;BME280;64834;52.516;10.528;2023-04-03T05:23:16;102723.00;;;-1.95;91.60
76108;BME280;64834;52.516;10.528;2023-04-03T05:25:41;102720.88;;;-1.92;91.06
76108;BME280;64834;52.516;10.528;2023-04-03T05:28:06;102720.88;;;-1.92;91.22
76108;BME280;64834;52.516;10.528;2023-04-03T05:30:32;102730.34;;;-1.85;91.26
76108;BME280;64834;52.516;10.528;2023-04-03T05:32:58;102728.91;;;-1.83;91.17
76108;BME280;64834;52.516;10.528;2023-04-03T05:35:24;102733.56;;;-1.81;91.06
76108;BME280;64834;52.516;10.528;2023-04-03T05:37:50;102741.47;;;-1.67;90.56
76108;BME280;64834;52.516;10.528;2023-04-03T05:40:15;102733.97;;;-1.65;90.27
76108;BME280;64834;52.516;10.528;2023-04-03T05:42:41;102741.78;;;-1.58;90.02
76108;BME280;64834;52.516;10.528;2023-04-03T05:45:06;102738.03;;;-1.54;89.92
76108;BME280;64834;52.516;10.528;2023-04-03T05:47:32;102744.06;;;-1.54;90.02
76108;BME280;64834;52.516;10.528;2023-04-03T05:49:57;102741.63;;;-1.47;89.86
76108;BME280;64834;52.516;10.528;2023-04-03T05:52:23;102746.47;;;-1.43;89.60
76108;BME280;64834;52.516;10.528;2023-04-03T05:54:50;102754.28;;;-1.36;89.43
76108;BME280;64834;52.516;10.528;2023-04-03T05:57:15;102748.13;;;-1.30;89.37
76108;BME280;64834;52.516;10.528;2023-04-03T05:59:45;102753.28;;;-1.18;88.46
76108;BME280;64834;52.516;10.528;2023-04-03T06:02:12;102759.03;;;-1.13;88.39
76108;BME280;64834;52.516;10.528;2023-04-03T06:04:38;102753.38;;;-0.98;88.41
76108;BME280;64834;52.516;10.528;2023-04-03T06:07:04;102756.13;;;-0.84;87.40
76108;BME280;64834;52.516;10.528;2023-04-03T06:09:29;102749.03;;;-0.79;87.03
76108;BME280;64834;52.516;10.528;2023-04-03T06:11:55;102760.03;;;-0.80;86.66
76108;BME280;64834;52.516;10.528;2023-04-03T06:14:23;102758.88;;;-0.69;86.37
76108;BME280;64834;52.516;10.528;2023-04-03T06:16:48;102766.19;;;-0.60;86.66
76108;BME280;64834;52.516;10.528;2023-04-03T06:19:14;102765.34;;;-0.53;86.29
76108;BME280;64834;52.516;10.528;2023-04-03T06:21:40;102764.34;;;-0.61;85.85
76108;BME280;64834;52.516;10.528;2023-04-03T06:24:06;102759.19;;;-0.61;86.26
76108;BME280;64834;52.516;10.528;2023-04-03T06:26:31;102764.34;;;-0.61;85.74
76108;BME280;64834;52.516;10.528;2023-04-03T06:28:57;102759.81;;;-0.56;85.60
76108;BME280;64834;52.516;10.528;2023-04-03T06:31:23;102763.81;;;-0.25;85.46
76108;BME280;64834;52.516;10.528;2023-04-03T06:33:48;102766.75;;;-0.30;85.08
76108;BME280;64834;52.516;10.528;2023-04-03T06:36:13;102769.38;;;-0.22;84.96
76108;BME280;64834;52.516;10.528;2023-04-03T06:38:39;102767.81;;;-0.15;84.48
76108;BME280;64834;52.516;10.528;2023-04-03T06:41:04;102769.63;;;0.19;83.90
76108;BME280;64834;52.516;10.528;2023-04-03T06:43:29;102769.13;;;0.21;82.77
76108;BME280;64834;52.516;10.528;2023-04-03T06:45:56;102774.56;;;0.77;82.23
76108;BME280;64834;52.516;10.528;2023-04-03T06:48:22;102765.38;;;1.13;79.20
76108;BME280;64834;52.516;10.528;2023-04-03T06:50:47;102775.41;;;1.66;77.68
76108;BME280;64834;52.516;10.528;2023-04-03T06:53:12;102780.75;;;1.67;76.55
76108;BME280;64834;52.516;10.528;2023-04-03T06:55:38;102778.59;;;1.70;75.51
76108;BME280;64834;52.516;10.528;2023-04-03T06:58:04;102777.91;;;2.00;75.77
76108;BME280;64834;52.516;10.528;2023-04-03T07:00:30;102777.56;;;2.18;74.44
76108;BME280;64834;52.516;10.528;2023-04-03T07:02:55;102782.78;;;2.47;74.15
76108;BME280;64834;52.516;10.528;2023-04-03T07:05:22;102780.72;;;2.94;72.63
76108;BME280;64834;52.516;10.528;2023-04-03T07:07:47;102786.84;;;2.80;70.72
76108;BME280;64834;52.516;10.528;2023-04-03T07:10:14;102787.19;;;3.05;71.17
76108;BME280;64834;52.516;10.528;2023-04-03T07:12:40;102793.88;;;2.95;70.24
76108;BME280;64834;52.516;10.528;2023-04-03T07:15:06;102799.72;;;3.02;70.85
76108;BME280;64834;52.516;10.528;2023-04-03T07:17:32;102793.63;;;3.15;70.27
76108;BME280;64834;52.516;10.528;2023-04-03T07:19:58;102792.53;;;3.06;69.49
76108;BME280;64834;52.516;10.528;2023-04-03T07:22:23;102792.50;;;3.13;69.19
76108;BME280;64834;52.516;10.528;2023-04-03T07:24:49;102795.94;;;3.49;69.14
76108;BME280;64834;52.516;10.528;2023-04-03T07:27:14;102799.53;;;3.29;68.52
76108;BME280;64834;52.516;10.528;2023-04-03T07:29:39;102800.31;;;3.58;68.39
76108;BME280;64834;52.516;10.528;2023-04-03T07:32:06;102805.47;;;4.02;67.10
76108;BME280;64834;52.516;10.528;2023-04-03T07:34:32;102803.75;;;4.17;66.74
76108;BME280;64834;52.516;10.528;2023-04-03T07:36:58;102800.78;;;4.44;65.77
76108;BME280;64834;52.516;10.528;2023-04-03T07:39:24;102804.75;;;4.33;65.94
76108;BME280;64834;52.516;10.528;2023-04-03T07:41:50;102813.84;;;4.52;65.24
76108;BME280;64834;52.516;10.528;2023-04-03T07:44:17;102801.09;;;4.54;63.80
76108;BME280;64834;52.516;10.528;2023-04-03T07:46:42;102800.16;;;4.76;63.10
76108;BME280;64834;52.516;10.528;2023-04-03T07:49:08;102799.69;;;4.65;61.42
76108;BME280;64834;52.516;10.528;2023-04-03T07:51:33;102799.91;;;4.82;61.32
76108;BME280;64834;52.516;10.528;2023-04-03T07:53:59;102794.75;;;4.82;60.77
76108;BME280;64834;52.516;10.528;2023-04-03T07:56:25;102794.34;;;4.86;59.10
76108;BME280;64834;52.516;10.528;2023-04-03T07:58:50;102793.72;;;5.11;59.04
76108;BME280;64834;52.516;10.528;2023-04-03T08:01:16;102795.78;;;5.07;57.40
76108;BME280;64834;52.516;10.528;2023-04-03T08:03:41;102792.44;;;5.08;59.34
76108;BME280;64834;52.516;10.528;2023-04-03T08:06:08;102802.75;;;4.76;57.60
76108;BME280;64834;52.516;10.528;2023-04-03T08:08:34;102799.41;;;4.77;59.02
76108;BME280;64834;52.516;10.528;2023-04-03T08:11:01;102786.63;;;4.79;56.99
76108;BME280;64834;52.516;10.528;2023-04-03T08:13:28;102788.69;;;4.97;55.50
76108;BME280;64834;52.516;10.528;2023-04-03T08:15:54;102799.09;;;5.29;55.51
76108;BME280;64834;52.516;10.528;2023-04-03T08:18:22;102792.31;;;5.69;54.38
76108;BME280;64834;52.516;10.528;2023-04-03T08:20:50;102788.31;;;5.49;53.02
76108;BME280;64834;52.516;10.528;2023-04-03T08:23:15;102785.47;;;5.23;52.48
76108;BME280;64834;52.516;10.528;2023-04-03T08:25:42;102794.41;;;5.33;53.26
76108;BME280;64834;52.516;10.528;2023-04-03T08:28:08;102801.19;;;5.40;53.54
76108;BME280;64834;52.516;10.528;2023-04-03T08:30:34;102790.81;;;5.40;52.01
76108;BME280;64834;52.516;10.528;2023-04-03T08:33:01;102792.66;;;5.25;54.05
76108;BME280;64834;52.516;10.528;2023-04-03T08:35:26;102795.63;;;5.21;52.21
76108;BME280;64834;52.516;10.528;2023-04-03T08:37:52;102787.78;;;5.12;52.26
76108;BME280;64834;52.516;10.528;2023-04-03T08:40:17;102788.72;;;5.45;53.35
76108;BME280;64834;52.516;10.528;2023-04-03T08:45:19;102779.00;;;5.51;50.22
76108;BME280;64834;52.516;10.528;2023-04-03T08:48:04;102782.66;;;5.53;50.18
76108;BME280;64834;52.516;10.528;2023-04-03T08:50:45;102778.00;;;5.73;51.11
76108;BME280;64834;52.516;10.528;2023-04-03T08:53:25;102777.16;;;5.34;50.02
76108;BME280;64834;52.516;10.528;2023-04-03T08:55:56;102774.97;;;5.46;51.36
76108;BME280;64834;52.516;10.528;2023-04-03T08:58:28;102786.06;;;6.08;50.39
76108;BME280;64834;52.516;10.528;2023-04-03T09:01:05;102778.00;;;6.13;49.53
76108;BME280;64834;52.516;10.528;2023-04-03T09:03:38;102779.84;;;6.14;50.75
76108;BME280;64834;52.516;10.528;2023-04-03T09:06:08;102776.06;;;5.63;51.78
76108;BME280;64834;52.516;10.528;2023-04-03T09:08:48;102781.94;;;5.54;52.21
76108;BME280;64834;52.516;10.528;2023-04-03T09:11:25;102783.41;;;5.83;52.38
76108;BME280;64834;52.516;10.528;2023-04-03T09:13:59;102786.19;;;6.01;49.80
76108;BME280;64834;52.516;10.528;2023-04-03T09:19:34;102780.91;;;6.41;48.72
76108;BME280;64834;52.516;10.528;2023-04-03T09:24:40;102773.31;;;6.18;48.21
76108;BME280;64834;52.516;10.528;2023-04-03T09:27:11;102770.63;;;6.34;47.16
76108;BME280;64834;52.516;10.528;2023-04-03T09:29:42;102772.81;;;6.38;48.11
76108;BME280;64834;52.516;10.528;2023-04-03T09:32:30;102771.38;;;6.57;48.41
76108;BME280;64834;52.516;10.528;2023-04-03T09:35:20;102784.13;;;6.71;47.59
76108;BME280;64834;52.516;10.528;2023-04-03T09:37:51;102780.28;;;6.35;46.60
76108;BME280;64834;52.516;10.528;2023-04-03T09:40:33;102772.19;;;6.40;49.46
76108;BME280;64834;52.516;10.528;2023-04-03T09:45:41;102777.50;;;5.37;52.19
76108;BME280;64834;52.516;10.528;2023-04-03T09:50:53;102766.78;;;5.18;52.35
76108;BME280;64834;52.516;10.528;2023-04-03T09:56:05;102770.56;;;5.29;53.56
76108;BME280;64834;52.516;10.528;2023-04-03T09:58:46;102759.16;;;5.67;49.35
76108;BME280;64834;52.516;10.528;2023-04-03T10:01:32;102755.72;;;5.44;50.94
76108;BME280;64834;52.516;10.528;2023-04-03T10:04:11;102755.94;;;5.85;50.31
76108;BME280;64834;52.516;10.528;2023-04-03T10:06:40;102752.00;;;6.38;48.81
76108;BME280;64834;52.516;10.528;2023-04-03T10:12:13;102747.06;;;6.24;48.48
76108;BME280;64834;52.516;10.528;2023-04-03T10:15:00;102741.72;;;6.31;47.06
76108;BME280;64834;52.516;10.528;2023-04-03T10:20:15;102728.31;;;6.10;48.92
76108;BME280;64834;52.516;10.528;2023-04-03T10:23:17;102736.59;;;6.81;49.36
76108;BME280;64834;52.516;10.528;2023-04-03T10:26:00;102733.34;;;6.66;47.60
76108;BME280;64834;52.516;10.528;2023-04-03T10:28:50;102736.94;;;6.27;46.83
76108;BME280;64834;52.516;10.528;2023-04-03T10:31:34;102732.47;;;6.17;46.84
76108;BME280;64834;52.516;10.528;2023-04-03T10:34:10;102728.03;;;5.91;48.36
76108;BME280;64834;52.516;10.528;2023-04-03T10:42:15;102733.47;;;6.35;47.16
76108;BME280;64834;52.516;10.528;2023-04-03T10:44:56;102716.88;;;5.92;47.26
76108;BME280;64834;52.516;10.528;2023-04-03T10:53:17;102727.53;;;5.71;46.91
76108;BME280;64834;52.516;10.528;2023-04-03T10:55:55;102729.06;;;5.69;47.50
76108;BME280;64834;52.516;10.528;2023-04-03T10:58:30;102726.91;;;5.49;47.68
76108;BME280;64834;52.516;10.528;2023-04-03T11:01:02;102718.50;;;5.67;46.80
76108;BME280;64834;52.516;10.528;2023-04-03T11:03:35;102717.84;;;5.61;47.39
76108;BME280;64834;52.516;10.528;2023-04-03T11:06:05;102720.97;;;5.50;47.85
76108;BME280;64834;52.516;10.528;2023-04-03T11:11:19;102700.09;;;5.57;47.43
76108;BME280;64834;52.516;10.528;2023-04-03T11:13:53;102702.63;;;5.49;47.27
76108;BME280;64834;52.516;10.528;2023-04-03T11:16:28;102700.72;;;5.79;47.36
76108;BME280;64834;52.516;10.528;2023-04-03T11:19:20;102696.97;;;6.42;47.56
76108;BME280;64834;52.516;10.528;2023-04-03T11:24:29;102691.94;;;6.43;46.32
76108;BME280;64834;52.516;10.528;2023-04-03T11:26:56;102699.06;;;6.04;44.82
76108;BME280;64834;52.516;10.528;2023-04-03T11:29:31;102686.94;;;5.96;45.82
76108;BME280;64834;52.516;10.528;2023-04-03T11:34:50;102681.03;;;6.39;42.74
76108;BME280;64834;52.516;10.528;2023-04-03T11:37:41;102679.97;;;6.87;43.21
76108;BME280;64834;52.516;10.528;2023-04-03T11:42:49;102666.72;;;7.36;41.74
76108;BME280;64834;52.516;10.528;2023-04-03T11:53:29;102672.50;;;7.16;43.97
76108;BME280;64834;52.516;10.528;2023-04-03T11:56:00;102670.53;;;7.40;44.83
76108;BME280;64834;52.516;10.528;2023-04-03T11:58:32;102661.47;;;7.45;42.75
76108;BME280;64834;52.516;10.528;2023-04-03T12:01:07;102662.25;;;7.61;43.41
76108;BME280;64834;52.516;10.528;2023-04-03T12:03:34;102655.47;;;7.72;39.66
76108;BME280;64834;52.516;10.528;2023-04-03T12:08:48;102649.75;;;7.93;39.22
76108;BME280;64834;52.516;10.528;2023-04-03T12:24:28;102654.69;;;6.78;43.26
76108;BME280;64834;52.516;10.528;2023-04-03T12:37:37;102663.03;;;7.25;45.27
76108;BME280;64834;52.516;10.528;2023-04-03T12:45:51;102640.13;;;6.62;43.73
76108;BME280;64834;52.516;10.528;2023-04-03T12:48:22;102644.34;;;6.36;44.21
76108;BME280;64834;52.516;10.528;2023-04-03T12:50:49;102633.50;;;6.48;43.91
76108;BME280;64834;52.516;10.528;2023-04-03T12:53:18;102637.56;;;6.80;43.62
76108;BME280;64834;52.516;10.528;2023-04-03T12:55:44;102622.72;;;7.22;40.88
76108;BME280;64834;52.516;10.528;2023-04-03T12:58:24;102619.06;;;7.20;40.80
76108;BME280;64834;52.516;10.528;2023-04-03T13:03:33;102625.00;;;6.84;42.16
76108;BME280;64834;52.516;10.528;2023-04-03T13:06:01;102621.63;;;6.68;42.99
76108;BME280;64834;52.516;10.528;2023-04-03T13:08:28;102617.53;;;7.05;41.86
76108;BME280;64834;52.516;10.528;2023-04-03T13:10:58;102607.06;;;7.56;41.33
76108;BME280;64834;52.516;10.528;2023-04-03T13:13:26;102612.31;;;7.13;41.94
76108;BME280;64834;52.516;10.528;2023-04-03T13:15:52;102615.69;;;7.21;43.08
76108;BME280;64834;52.516;10.528;2023-04-03T13:18:33;102620.13;;;6.96;42.90
76108;BME280;64834;52.516;10.528;2023-04-03T13:21:05;102614.06;;;6.54;42.50
76108;BME280;64834;52.516;10.528;2023-04-03T13:23:35;102608.56;;;6.51;42.55
76108;BME280;64834;52.516;10.528;2023-04-03T13:26:01;102610.31;;;6.76;43.45
76108;BME280;64834;52.516;10.528;2023-04-03T13:28:30;102612.94;;;6.93;44.22
76108;BME280;64834;52.516;10.528;2023-04-03T13:33:33;102612.03;;;6.93;41.23
76108;BME280;64834;52.516;10.528;2023-04-03T13:36:11;102608.19;;;6.81;40.62
76108;BME280;64834;52.516;10.528;2023-04-03T13:38:41;102599.91;;;6.67;40.06
76108;BME280;64834;52.516;10.528;2023-04-03T13:41:37;102601.25;;;6.72;39.88
76108;BME280;64834;52.516;10.528;2023-04-03T13:44:38;102597.44;;;7.03;40.49
76108;BME280;64834;52.516;10.528;2023-04-03T13:49:39;102584.81;;;7.69;40.22
76108;BME280;64834;52.516;10.528;2023-04-03T13:52:27;102583.56;;;7.82;38.06
76108;BME280;64834;52.516;10.528;2023-04-03T13:55:02;102582.97;;;7.76;39.40
76108;BME280;64834;52.516;10.528;2023-04-03T13:57:28;102575.84;;;7.22;39.53
76108;BME280;64834;52.516;10.528;2023-04-03T13:59:54;102563.00;;;7.23;39.55
76108;BME280;64834;52.516;10.528;2023-04-03T14:02:21;102570.59;;;7.56;39.17
76108;BME280;64834;52.516;10.528;2023-04-03T14:04:56;102569.28;;;7.88;38.05
76108;BME280;64834;52.516;10.528;2023-04-03T14:07:25;102564.78;;;8.31;39.88
76108;BME280;64834;52.516;10.528;2023-04-03T14:09:51;102567.59;;;8.24;39.22
76108;BME280;64834;52.516;10.528;2023-04-03T14:12:24;102570.97;;;7.87;39.19
76108;BME280;64834;52.516;10.528;2023-04-03T14:14:50;102567.69;;;7.53;40.16
76108;BME280;64834;52.516;10.528;2023-04-03T14:17:21;102560.56;;;7.08;41.83
76108;BME280;64834;52.516;10.528;2023-04-03T14:19:48;102562.25;;;6.90;42.70
76108;BME280;64834;52.516;10.528;2023-04-03T14:22:20;102553.81;;;7.27;42.46
76108;BME280;64834;52.516;10.528;2023-04-03T14:24:47;102556.72;;;7.21;41.80
76108;BME280;64834;52.516;10.528;2023-04-03T14:27:21;102551.50;;;7.30;42.07
76108;BME280;64834;52.516;10.528;2023-04-03T14:29:48;102564.09;;;7.17;42.28